Yamato — JD2252 — position and weather

sailwx.info

Track history (hours):
 
Tides and Currents Weather Stations Pressure Air Temp Water Temp Dewpoint Dewpoint Depression Visibility Wind Speed Wind Dir Waves Ship Positions

Yamato

Last reported at 2015-May-03 07:08 UTC. Time now 2015-May-03 09:49 UTC.
Position N 35°27' E 139°39'.

Length 40 m; draft 3.6 m.

Type: Tug. MMSI: 431101141.

Date/timePositionNaut miles runAvg speedWind from/ knotsBaromVisibWave heightAir tempDewpointWater temp
2015-May-03 07:08N 35°27' E 139°39'0 0.0
2015-May-03 06:34N 35°27' E 139°39'0 0.0
2015-May-03 05:34N 35°27' E 139°39'3 2.5
2015-May-03 04:33N 35°27' E 139°42'4 3.7
2015-May-03 03:34N 35°29' E 139°45'2 1.9
2015-May-03 02:34N 35°27' E 139°44'4 4.4
2015-May-03 01:34N 35°27' E 139°39'0 0.0
2015-May-03 00:33N 35°27' E 139°39'0 0.0
2015-May-02 23:34N 35°27' E 139°39'0 0.0
2015-May-02 22:34N 35°27' E 139°39'0 0.0
2015-May-02 21:33N 35°27' E 139°39'0 0.0
2015-May-02 09:33N 35°27' E 139°39'3 3.5
2015-May-02 08:34N 35°26' E 139°43'0 0.5
2015-May-02 07:33N 35°27' E 139°42'4 4.4
2015-May-02 06:33N 35°24' E 139°38'0 0.0
2015-May-02 05:33N 35°24' E 139°38'3 2.9
2015-May-02 04:34N 35°23' E 139°41'5 4.6
2015-May-02 03:33N 35°27' E 139°39'0 0.0
2015-May-02 02:33N 35°27' E 139°39'3 2.7
2015-May-02 01:33N 35°28' E 139°43'3 3.3
2015-May-02 00:33N 35°27' E 139°39'0 0.0
2015-May-01 23:33N 35°27' E 139°39'0 0.0
2015-May-01 22:33N 35°27' E 139°39'0 0.0
2015-May-01 21:33N 35°27' E 139°39'0 0.0
2015-May-01 11:29N 35°27' E 139°39'3 2.9
2015-May-01 10:34N 35°27' E 139°42'2 2.0
2015-May-01 09:33N 35°28' E 139°44'2 1.8
2015-May-01 08:34N 35°28' E 139°41'2 2.1
2015-May-01 07:33N 35°29' E 139°43'0 0.5
2015-May-01 06:33N 35°29' E 139°42'3 2.7
2015-May-01 05:33N 35°26' E 139°43'1 0.9
2015-May-01 04:33N 35°27' E 139°42'0 0.4
2015-May-01 03:33N 35°27' E 139°41'2 2.3
2015-May-01 02:33N 35°28' E 139°39'0 0.1
2015-Apr-30 22:33N 35°27' E 139°39'0 0.0
2015-Apr-30 21:33N 35°27' E 139°39'0 0.0
2015-Apr-30 20:33N 35°27' E 139°39'0 0.0
2015-Apr-30 19:33N 35°27' E 139°39'0 0.0
2015-Apr-30 18:33N 35°27' E 139°39'0 0.0
2015-Apr-30 17:33N 35°27' E 139°39'0 0.0
2015-Apr-30 16:33N 35°27' E 139°39'0 0.0
2015-Apr-30 15:33N 35°27' E 139°39'0 0.0
2015-Apr-30 14:33N 35°27' E 139°39'0 0.0
2015-Apr-30 13:33N 35°27' E 139°39'0 0.0
2015-Apr-30 12:33N 35°27' E 139°39'0 0.0
2015-Apr-30 11:33N 35°27' E 139°39'0 0.0
2015-Apr-30 10:33N 35°27' E 139°39'0 0.0
2015-Apr-30 09:33N 35°27' E 139°39'0 0.0
2015-Apr-30 08:33N 35°27' E 139°39'0 0.0
2015-Apr-30 07:33N 35°27' E 139°39'0 0.0
2015-Apr-30 06:33N 35°27' E 139°39'0 0.0
2015-Apr-30 05:33N 35°27' E 139°39'0 0.0
2015-Apr-30 04:33N 35°27' E 139°39'0 0.0
2015-Apr-30 03:34N 35°27' E 139°39'0 0.0
2015-Apr-30 02:33N 35°27' E 139°39'0 0.0
2015-Apr-30 01:33N 35°27' E 139°39'0 0.0
2015-Apr-30 00:33N 35°27' E 139°39'1 0.7
2015-Apr-29 23:33N 35°27' E 139°39'3 3.0
2015-Apr-29 22:33N 35°26' E 139°43'1 0.9
2015-Apr-29 21:33N 35°27' E 139°42'1 1.2
2015-Apr-29 20:33N 35°26' E 139°41'2 2.1
2015-Apr-29 19:33N 35°27' E 139°39'0 0.0
2015-Apr-29 18:33N 35°27' E 139°39'0 0.0
2015-Apr-29 17:33N 35°27' E 139°39'0 0.0
2015-Apr-29 16:33N 35°27' E 139°39'0 0.0
2015-Apr-29 15:33N 35°27' E 139°39'0 0.0
2015-Apr-29 14:34N 35°27' E 139°39'0 0.0
2015-Apr-29 13:33N 35°27' E 139°39'0 0.0
2015-Apr-29 12:33N 35°27' E 139°39'1 1.3
2015-Apr-29 11:33N 35°27' E 139°40'3 2.7
2015-Apr-29 10:33N 35°26' E 139°43'1 1.1
2015-Apr-29 09:33N 35°27' E 139°42'1 1.0
2015-Apr-29 08:33N 35°27' E 139°41'2 2.1
2015-Apr-29 07:33N 35°27' E 139°39'0 0.0
2015-Apr-29 06:33N 35°27' E 139°39'0 0.0
2015-Apr-29 05:33N 35°27' E 139°39'0 0.0
2015-Apr-29 04:33N 35°27' E 139°39'0 0.0
2015-Apr-29 03:33N 35°27' E 139°39'0 0.0
2015-Apr-29 02:33N 35°27' E 139°39'0 0.0
2015-Apr-29 01:33N 35°27' E 139°39'0 0.0
2015-Apr-29 00:33N 35°27' E 139°39'0 0.0
2015-Apr-28 23:33N 35°27' E 139°39'0 0.0
2015-Apr-28 22:33N 35°27' E 139°39'0 0.0
2015-Apr-28 21:33N 35°27' E 139°39'0 0.0
2015-Apr-28 20:33N 35°27' E 139°39'0 0.0
2015-Apr-28 19:33N 35°27' E 139°39'0 0.0
2015-Apr-28 18:33N 35°27' E 139°39'0 0.0
2015-Apr-28 17:33N 35°27' E 139°39'0 0.0
2015-Apr-28 16:33N 35°27' E 139°39'0 0.0
2015-Apr-28 15:33N 35°27' E 139°39'0 0.0
2015-Apr-28 14:33N 35°27' E 139°39'0 0.0
2015-Apr-28 13:33N 35°27' E 139°39'0 0.0
2015-Apr-28 12:33N 35°27' E 139°39'0 0.0
2015-Apr-28 11:33N 35°27' E 139°39'0 0.0
2015-Apr-28 10:33N 35°27' E 139°39'0 0.0
2015-Apr-28 09:33N 35°27' E 139°39'0 0.0
2015-Apr-28 08:33N 35°27' E 139°39'0 0.0
2015-Apr-28 07:33N 35°27' E 139°39'0 0.0
2015-Apr-28 06:33N 35°27' E 139°39'0 0.0
2015-Apr-28 05:33N 35°27' E 139°39'0 0.0
2015-Apr-28 04:33N 35°27' E 139°39'3 2.8
2015-Apr-28 03:33N 35°26' E 139°42'4 4.3
2015-Apr-28 02:33N 35°24' E 139°37'1 1.5
2015-Apr-28 01:33N 35°24' E 139°39'1 1.3
2015-Apr-28 00:33N 35°23' E 139°40'0 0.0
2015-Apr-27 23:34N 35°23' E 139°40'5 5.2
2015-Apr-27 22:33N 35°28' E 139°41'2 1.9
2015-Apr-27 21:33N 35°27' E 139°43'3 3.4
2015-Apr-27 20:33N 35°27' E 139°39'3 0.2
2015-Apr-27 07:33N 35°27' E 139°42'3 3.2
2015-Apr-27 06:33N 35°29' E 139°46'2 2.2
2015-Apr-27 05:33N 35°28' E 139°43'1 1.3
2015-Apr-27 04:33N 35°26' E 139°43'3 2.9
2015-Apr-27 03:33N 35°28' E 139°41'1 0.6
2015-Apr-27 02:33N 35°28' E 139°41'0 0.0
2015-Apr-27 01:33N 35°28' E 139°41'0 0.0
2015-Apr-27 00:33N 35°28' E 139°41'0 0.0
2015-Apr-26 23:33N 35°28' E 139°41'6 5.6
2015-Apr-26 22:33N 35°31' E 139°46'2 2.1
2015-Apr-26 21:33N 35°30' E 139°44'5 4.9
2015-Apr-26 20:33N 35°27' E 139°39'0 0.0
2015-Apr-26 19:33N 35°27' E 139°39'0 0.0
2015-Apr-26 18:33N 35°27' E 139°39'0 0.0
2015-Apr-26 17:33N 35°27' E 139°39'0 0.0
2015-Apr-26 16:33N 35°27' E 139°39'0 0.0
2015-Apr-26 15:33N 35°27' E 139°39'0 0.0
2015-Apr-26 14:33N 35°27' E 139°39'0 0.0
2015-Apr-26 13:33N 35°27' E 139°39'0 0.0
2015-Apr-26 12:33N 35°27' E 139°39'0 0.0
2015-Apr-26 11:33N 35°27' E 139°39'0 0.0
2015-Apr-26 10:33N 35°27' E 139°39'0 0.0
2015-Apr-26 09:33N 35°27' E 139°39'0 0.0
2015-Apr-26 08:33N 35°27' E 139°39'0 0.0
2015-Apr-26 07:33N 35°27' E 139°39'0 0.0
2015-Apr-26 06:33N 35°27' E 139°39'0 0.0
2015-Apr-26 05:33N 35°27' E 139°39'2 1.6
2015-Apr-26 04:33N 35°27' E 139°40'2 1.6
2015-Apr-26 03:33N 35°27' E 139°39'0 0.0
2015-Apr-26 02:33N 35°27' E 139°39'0 0.0
2015-Apr-26 01:33N 35°27' E 139°39'1 1.3
2015-Apr-26 00:33N 35°27' E 139°40'0 0.3
2015-Apr-25 23:33N 35°28' E 139°41'0 0.0
2015-Apr-25 22:33N 35°28' E 139°41'1 1.5
2015-Apr-25 21:33N 35°28' E 139°42'1 1.2
2015-Apr-25 20:33N 35°27' E 139°41'2 0.2
2015-Apr-25 09:23N 35°27' E 139°39'2 1.9
2015-Apr-25 08:33N 35°27' E 139°40'1 0.8
2015-Apr-25 07:33N 35°28' E 139°41'0 0.0
2015-Apr-25 06:33N 35°28' E 139°41'0 0.0
2015-Apr-25 05:33N 35°28' E 139°41'1 1.0
2015-Apr-25 04:34N 35°27' E 139°40'2 1.5
2015-Apr-25 03:33N 35°27' E 139°39'3 3.5
2015-Apr-25 02:34N 35°26' E 139°43'2 1.5
2015-Apr-25 01:33N 35°26' E 139°41'1 1.4
2015-Apr-25 00:33N 35°27' E 139°39'0 0.0
2015-Apr-24 23:33N 35°27' E 139°39'0 0.0
2015-Apr-24 22:33N 35°27' E 139°39'3 3.4
2015-Apr-24 21:33N 35°28' E 139°43'2 2.2
2015-Apr-24 20:33N 35°29' E 139°45'6 5.7
2015-Apr-24 19:33N 35°27' E 139°39'0 0.0
2015-Apr-23 23:15N 35°27' E 139°39'2 3.5
2015-Apr-23 22:33N 35°28' E 139°42'1 1.2
2015-Apr-23 21:33N 35°27' E 139°43'0 0.3
2015-Apr-23 20:33N 35°27' E 139°42'3 3.1
2015-Apr-23 19:34N 35°24' E 139°41'2 2.1
2015-Apr-23 18:33N 35°26' E 139°42'3 2.8
2015-Apr-23 17:33N 35°27' E 139°39'0 0.0
2015-Apr-23 16:33N 35°27' E 139°39'0 0.0
2015-Apr-23 15:34N 35°27' E 139°39'0 0.0
2015-Apr-23 14:33N 35°27' E 139°39'0 0.0
2015-Apr-23 13:33N 35°27' E 139°39'0 0.0
2015-Apr-23 12:33N 35°27' E 139°39'0 0.0
2015-Apr-23 11:33N 35°27' E 139°39'0 0.0
2015-Apr-23 10:34N 35°27' E 139°39'0 0.0
2015-Apr-23 09:34N 35°27' E 139°39'2 2.3
2015-Apr-23 08:33N 35°27' E 139°41'2 2.3
2015-Apr-23 07:33N 35°27' E 139°39'  
Track history (hours):
 
Tides and Currents Weather Stations Pressure Air Temp Water Temp Dewpoint Dewpoint Depression Visibility Wind Speed Wind Dir Waves Ship Positions

Yamato

Last reported at 2015-May-03 07:08 UTC. Time now 2015-May-03 09:49 UTC.
Position N 35°27' E 139°39'.

Length 40 m; draft 3.6 m.

Type: Tug. MMSI: 431101141.

Date/timePositionNaut miles runAvg speedWind from/ knotsBaromVisibWave heightAir tempDewpointWater temp
2015-May-03 07:08N 35°27' E 139°39'0 0.0
2015-May-03 06:34N 35°27' E 139°39'0 0.0
2015-May-03 05:34N 35°27' E 139°39'3 2.5
2015-May-03 04:33N 35°27' E 139°42'4 3.7
2015-May-03 03:34N 35°29' E 139°45'2 1.9
2015-May-03 02:34N 35°27' E 139°44'4 4.4
2015-May-03 01:34N 35°27' E 139°39'0 0.0
2015-May-03 00:33N 35°27' E 139°39'0 0.0
2015-May-02 23:34N 35°27' E 139°39'0 0.0
2015-May-02 22:34N 35°27' E 139°39'0 0.0
2015-May-02 21:33N 35°27' E 139°39'0 0.0
2015-May-02 09:33N 35°27' E 139°39'3 3.5
2015-May-02 08:34N 35°26' E 139°43'0 0.5
2015-May-02 07:33N 35°27' E 139°42'4 4.4
2015-May-02 06:33N 35°24' E 139°38'0 0.0
2015-May-02 05:33N 35°24' E 139°38'3 2.9
2015-May-02 04:34N 35°23' E 139°41'5 4.6
2015-May-02 03:33N 35°27' E 139°39'0 0.0
2015-May-02 02:33N 35°27' E 139°39'3 2.7
2015-May-02 01:33N 35°28' E 139°43'3 3.3
2015-May-02 00:33N 35°27' E 139°39'0 0.0
2015-May-01 23:33N 35°27' E 139°39'0 0.0
2015-May-01 22:33N 35°27' E 139°39'0 0.0
2015-May-01 21:33N 35°27' E 139°39'0 0.0
2015-May-01 11:29N 35°27' E 139°39'3 2.9
2015-May-01 10:34N 35°27' E 139°42'2 2.0
2015-May-01 09:33N 35°28' E 139°44'2 1.8
2015-May-01 08:34N 35°28' E 139°41'2 2.1
2015-May-01 07:33N 35°29' E 139°43'0 0.5
2015-May-01 06:33N 35°29' E 139°42'3 2.7
2015-May-01 05:33N 35°26' E 139°43'1 0.9
2015-May-01 04:33N 35°27' E 139°42'0 0.4
2015-May-01 03:33N 35°27' E 139°41'2 2.3
2015-May-01 02:33N 35°28' E 139°39'0 0.1
2015-Apr-30 22:33N 35°27' E 139°39'0 0.0
2015-Apr-30 21:33N 35°27' E 139°39'0 0.0
2015-Apr-30 20:33N 35°27' E 139°39'0 0.0
2015-Apr-30 19:33N 35°27' E 139°39'0 0.0
2015-Apr-30 18:33N 35°27' E 139°39'0 0.0
2015-Apr-30 17:33N 35°27' E 139°39'0 0.0
2015-Apr-30 16:33N 35°27' E 139°39'0 0.0
2015-Apr-30 15:33N 35°27' E 139°39'0 0.0
2015-Apr-30 14:33N 35°27' E 139°39'0 0.0
2015-Apr-30 13:33N 35°27' E 139°39'0 0.0
2015-Apr-30 12:33N 35°27' E 139°39'0 0.0
2015-Apr-30 11:33N 35°27' E 139°39'0 0.0
2015-Apr-30 10:33N 35°27' E 139°39'0 0.0
2015-Apr-30 09:33N 35°27' E 139°39'0 0.0
2015-Apr-30 08:33N 35°27' E 139°39'0 0.0
2015-Apr-30 07:33N 35°27' E 139°39'0 0.0
2015-Apr-30 06:33N 35°27' E 139°39'0 0.0
2015-Apr-30 05:33N 35°27' E 139°39'0 0.0
2015-Apr-30 04:33N 35°27' E 139°39'0 0.0
2015-Apr-30 03:34N 35°27' E 139°39'0 0.0
2015-Apr-30 02:33N 35°27' E 139°39'0 0.0
2015-Apr-30 01:33N 35°27' E 139°39'0 0.0
2015-Apr-30 00:33N 35°27' E 139°39'1 0.7
2015-Apr-29 23:33N 35°27' E 139°39'3 3.0
2015-Apr-29 22:33N 35°26' E 139°43'1 0.9
2015-Apr-29 21:33N 35°27' E 139°42'1 1.2
2015-Apr-29 20:33N 35°26' E 139°41'2 2.1
2015-Apr-29 19:33N 35°27' E 139°39'0 0.0
2015-Apr-29 18:33N 35°27' E 139°39'0 0.0
2015-Apr-29 17:33N 35°27' E 139°39'0 0.0
2015-Apr-29 16:33N 35°27' E 139°39'0 0.0
2015-Apr-29 15:33N 35°27' E 139°39'0 0.0
2015-Apr-29 14:34N 35°27' E 139°39'0 0.0
2015-Apr-29 13:33N 35°27' E 139°39'0 0.0
2015-Apr-29 12:33N 35°27' E 139°39'1 1.3
2015-Apr-29 11:33N 35°27' E 139°40'3 2.7
2015-Apr-29 10:33N 35°26' E 139°43'1 1.1
2015-Apr-29 09:33N 35°27' E 139°42'1 1.0
2015-Apr-29 08:33N 35°27' E 139°41'2 2.1
2015-Apr-29 07:33N 35°27' E 139°39'0 0.0
2015-Apr-29 06:33N 35°27' E 139°39'0 0.0
2015-Apr-29 05:33N 35°27' E 139°39'0 0.0
2015-Apr-29 04:33N 35°27' E 139°39'0 0.0
2015-Apr-29 03:33N 35°27' E 139°39'0 0.0
2015-Apr-29 02:33N 35°27' E 139°39'0 0.0
2015-Apr-29 01:33N 35°27' E 139°39'0 0.0
2015-Apr-29 00:33N 35°27' E 139°39'0 0.0
2015-Apr-28 23:33N 35°27' E 139°39'0 0.0
2015-Apr-28 22:33N 35°27' E 139°39'0 0.0
2015-Apr-28 21:33N 35°27' E 139°39'0 0.0
2015-Apr-28 20:33N 35°27' E 139°39'0 0.0
2015-Apr-28 19:33N 35°27' E 139°39'0 0.0
2015-Apr-28 18:33N 35°27' E 139°39'0 0.0
2015-Apr-28 17:33N 35°27' E 139°39'0 0.0
2015-Apr-28 16:33N 35°27' E 139°39'0 0.0
2015-Apr-28 15:33N 35°27' E 139°39'0 0.0
2015-Apr-28 14:33N 35°27' E 139°39'0 0.0
2015-Apr-28 13:33N 35°27' E 139°39'0 0.0
2015-Apr-28 12:33N 35°27' E 139°39'0 0.0
2015-Apr-28 11:33N 35°27' E 139°39'0 0.0
2015-Apr-28 10:33N 35°27' E 139°39'0 0.0
2015-Apr-28 09:33N 35°27' E 139°39'0 0.0
2015-Apr-28 08:33N 35°27' E 139°39'0 0.0
2015-Apr-28 07:33N 35°27' E 139°39'0 0.0
2015-Apr-28 06:33N 35°27' E 139°39'0 0.0
2015-Apr-28 05:33N 35°27' E 139°39'0 0.0
2015-Apr-28 04:33N 35°27' E 139°39'3 2.8
2015-Apr-28 03:33N 35°26' E 139°42'4 4.3
2015-Apr-28 02:33N 35°24' E 139°37'1 1.5
2015-Apr-28 01:33N 35°24' E 139°39'1 1.3
2015-Apr-28 00:33N 35°23' E 139°40'0 0.0
2015-Apr-27 23:34N 35°23' E 139°40'5 5.2
2015-Apr-27 22:33N 35°28' E 139°41'2 1.9
2015-Apr-27 21:33N 35°27' E 139°43'3 3.4
2015-Apr-27 20:33N 35°27' E 139°39'3 0.2
2015-Apr-27 07:33N 35°27' E 139°42'3 3.2
2015-Apr-27 06:33N 35°29' E 139°46'2 2.2
2015-Apr-27 05:33N 35°28' E 139°43'1 1.3
2015-Apr-27 04:33N 35°26' E 139°43'3 2.9
2015-Apr-27 03:33N 35°28' E 139°41'1 0.6
2015-Apr-27 02:33N 35°28' E 139°41'0 0.0
2015-Apr-27 01:33N 35°28' E 139°41'0 0.0
2015-Apr-27 00:33N 35°28' E 139°41'0 0.0
2015-Apr-26 23:33N 35°28' E 139°41'6 5.6
2015-Apr-26 22:33N 35°31' E 139°46'2 2.1
2015-Apr-26 21:33N 35°30' E 139°44'5 4.9
2015-Apr-26 20:33N 35°27' E 139°39'0 0.0
2015-Apr-26 19:33N 35°27' E 139°39'0 0.0
2015-Apr-26 18:33N 35°27' E 139°39'0 0.0
2015-Apr-26 17:33N 35°27' E 139°39'0 0.0
2015-Apr-26 16:33N 35°27' E 139°39'0 0.0
2015-Apr-26 15:33N 35°27' E 139°39'0 0.0
2015-Apr-26 14:33N 35°27' E 139°39'0 0.0
2015-Apr-26 13:33N 35°27' E 139°39'0 0.0
2015-Apr-26 12:33N 35°27' E 139°39'0 0.0
2015-Apr-26 11:33N 35°27' E 139°39'0 0.0
2015-Apr-26 10:33N 35°27' E 139°39'0 0.0
2015-Apr-26 09:33N 35°27' E 139°39'0 0.0
2015-Apr-26 08:33N 35°27' E 139°39'0 0.0
2015-Apr-26 07:33N 35°27' E 139°39'0 0.0
2015-Apr-26 06:33N 35°27' E 139°39'0 0.0
2015-Apr-26 05:33N 35°27' E 139°39'2 1.6
2015-Apr-26 04:33N 35°27' E 139°40'2 1.6
2015-Apr-26 03:33N 35°27' E 139°39'0 0.0
2015-Apr-26 02:33N 35°27' E 139°39'0 0.0
2015-Apr-26 01:33N 35°27' E 139°39'1 1.3
2015-Apr-26 00:33N 35°27' E 139°40'0 0.3
2015-Apr-25 23:33N 35°28' E 139°41'0 0.0
2015-Apr-25 22:33N 35°28' E 139°41'1 1.5
2015-Apr-25 21:33N 35°28' E 139°42'1 1.2
2015-Apr-25 20:33N 35°27' E 139°41'2 0.2
2015-Apr-25 09:23N 35°27' E 139°39'2 1.9
2015-Apr-25 08:33N 35°27' E 139°40'1 0.8
2015-Apr-25 07:33N 35°28' E 139°41'0 0.0
2015-Apr-25 06:33N 35°28' E 139°41'0 0.0
2015-Apr-25 05:33N 35°28' E 139°41'1 1.0
2015-Apr-25 04:34N 35°27' E 139°40'2 1.5
2015-Apr-25 03:33N 35°27' E 139°39'3 3.5
2015-Apr-25 02:34N 35°26' E 139°43'2 1.5
2015-Apr-25 01:33N 35°26' E 139°41'1 1.4
2015-Apr-25 00:33N 35°27' E 139°39'0 0.0
2015-Apr-24 23:33N 35°27' E 139°39'0 0.0
2015-Apr-24 22:33N 35°27' E 139°39'3 3.4
2015-Apr-24 21:33N 35°28' E 139°43'2 2.2
2015-Apr-24 20:33N 35°29' E 139°45'6 5.7
2015-Apr-24 19:33N 35°27' E 139°39'0 0.0
2015-Apr-23 23:15N 35°27' E 139°39'2 3.5
2015-Apr-23 22:33N 35°28' E 139°42'1 1.2
2015-Apr-23 21:33N 35°27' E 139°43'0 0.3
2015-Apr-23 20:33N 35°27' E 139°42'3 3.1
2015-Apr-23 19:34N 35°24' E 139°41'2 2.1
2015-Apr-23 18:33N 35°26' E 139°42'3 2.8
2015-Apr-23 17:33N 35°27' E 139°39'0 0.0
2015-Apr-23 16:33N 35°27' E 139°39'0 0.0
2015-Apr-23 15:34N 35°27' E 139°39'0 0.0
2015-Apr-23 14:33N 35°27' E 139°39'0 0.0
2015-Apr-23 13:33N 35°27' E 139°39'0 0.0
2015-Apr-23 12:33N 35°27' E 139°39'0 0.0
2015-Apr-23 11:33N 35°27' E 139°39'0 0.0
2015-Apr-23 10:34N 35°27' E 139°39'0 0.0
2015-Apr-23 09:34N 35°27' E 139°39'2 2.3
2015-Apr-23 08:33N 35°27' E 139°41'2 2.3
2015-Apr-23 07:33N 35°27' E 139°39'  

Dump ship's entire track history